Time;durP1;ratioP1;P1;durP2;ratioP2;P2;SDS_P1;SDS_P2;PMS_P1;PMS_P2;Temp;Humidity;BMP_temperature;BMP_pressure;BME280_temperature;BME280_humidity;BME280_pressure;Samples;Min_cycle;Max_cycle;Signal;HPM_P1;HPM_P2
2023/01/23 00:00:09;;;;;;;;;;;;;;;2.38;100.00;103628.25;5075987;28;20208;-79
2023/01/23 00:02:35;;;;;;;;;;;;;;;2.38;100.00;103626.53;5075982;28;19983;-79
2023/01/23 00:05:00;;;;;;;;;;;;;;;2.38;100.00;103629.13;5075724;28;20173;-79
2023/01/23 00:07:25;;;;;;;;;;;;;;;2.38;100.00;103628.25;5076271;28;19943;-79
2023/01/23 00:09:51;;;;;;;;;;;;;;;2.39;100.00;103624.84;5076784;28;19920;-79
2023/01/23 00:12:16;;;;;;;;;;;;;;;2.40;100.00;103617.16;5076131;28;19920;-79
2023/01/23 00:14:41;;;;;;;;;;;;;;;2.41;100.00;103623.19;5077097;28;19971;-79
2023/01/23 00:17:06;;;;;;;;;;;;;;;2.41;100.00;103628.38;5076240;28;19912;-79
2023/01/23 00:19:32;;;;;;;;;;;;;;;2.38;100.00;103629.13;5083101;28;19957;-78
2023/01/23 00:21:58;;;;;;;;;;;;;;;2.36;100.00;103625.59;5081634;28;19913;-78
2023/01/23 00:24:23;;;;;;;;;;;;;;;2.37;100.00;103627.38;5076420;28;20256;-78
2023/01/23 00:26:49;;;;;;;;;;;;;;;2.39;100.00;103627.44;5078988;28;19916;-78
2023/01/23 00:29:14;;;;;;;;;;;;;;;2.42;100.00;103624.94;5079116;28;19947;-78
2023/01/23 00:31:39;;;;;;;;;;;;;;;2.42;100.00;103625.84;5080182;28;19912;-78
2023/01/23 00:34:06;;;;;;;;;;;;;;;2.44;100.00;103611.25;5080996;28;19939;-78
2023/01/23 00:36:33;;;;;;;;;;;;;;;2.47;100.00;103613.97;5080057;28;19920;-78
2023/01/23 00:38:58;;;;;;;;;;;;;;;2.49;100.00;103621.75;5080532;28;19940;-78
2023/01/23 00:41:24;;;;;;;;;;;;;;;2.50;100.00;103619.22;5080181;28;19935;-78
2023/01/23 00:43:51;;;;;;;;;;;;;;;2.51;100.00;103607.22;5080325;28;20230;-78
2023/01/23 00:46:17;;;;;;;;;;;;;;;2.54;100.00;103601.25;5080015;28;19958;-78
2023/01/23 00:48:43;;;;;;;;;;;;;;;2.51;100.00;103599.44;5080879;28;20287;-78
2023/01/23 00:51:08;;;;;;;;;;;;;;;2.47;100.00;103584.59;5080627;28;20250;-78
2023/01/23 00:53:33;;;;;;;;;;;;;;;2.45;100.00;103594.91;5081335;28;19995;-78
2023/01/23 00:55:58;;;;;;;;;;;;;;;2.45;100.00;103594.91;5084472;28;19925;-78
2023/01/23 00:58:24;;;;;;;;;;;;;;;2.44;100.00;103594.88;5089333;28;19916;-78
2023/01/23 01:00:49;;;;;;;;;;;;;;;2.42;100.00;103601.66;5093174;28;20146;-78
2023/01/23 01:03:14;;;;;;;;;;;;;;;2.41;100.00;103599.91;5082782;28;19965;-78
2023/01/23 01:05:40;;;;;;;;;;;;;;;2.40;100.00;103595.56;5080069;28;19936;-78
2023/01/23 01:08:05;;;;;;;;;;;;;;;2.39;100.00;103598.97;5080025;28;20015;-78
2023/01/23 01:10:31;;;;;;;;;;;;;;;2.38;100.00;103595.50;5079632;28;19909;-78
2023/01/23 01:12:57;;;;;;;;;;;;;;;2.38;100.00;103594.63;5080552;28;19916;-78
2023/01/23 01:15:23;;;;;;;;;;;;;;;2.39;100.00;103591.22;5079588;28;20278;-78
2023/01/23 01:17:48;;;;;;;;;;;;;;;2.35;100.00;103590.22;5079822;28;19927;-78
2023/01/23 01:20:14;;;;;;;;;;;;;;;2.35;100.00;103594.50;5080045;28;20094;-78
2023/01/23 01:22:39;;;;;;;;;;;;;;;2.34;100.00;103598.78;5079889;28;19928;-78
2023/01/23 01:25:05;;;;;;;;;;;;;;;2.34;100.00;103603.97;5079978;28;19928;-78
2023/01/23 01:27:30;;;;;;;;;;;;;;;2.36;100.00;103604.91;5079212;28;19919;-78
2023/01/23 01:29:55;;;;;;;;;;;;;;;2.39;100.00;103601.56;5079932;28;19920;-78
2023/01/23 01:32:21;;;;;;;;;;;;;;;2.40;100.00;103601.63;5086919;28;19917;-78
2023/01/23 01:34:46;;;;;;;;;;;;;;;2.43;100.00;103603.44;5079756;28;20134;-78
2023/01/23 01:37:11;;;;;;;;;;;;;;;2.43;100.00;103596.56;5079362;28;19925;-78
2023/01/23 01:39:37;;;;;;;;;;;;;;;2.45;100.00;103602.66;5079154;28;19912;-78
2023/01/23 01:42:02;;;;;;;;;;;;;;;2.45;100.00;103605.25;5085631;28;19931;-78
2023/01/23 01:44:27;;;;;;;;;;;;;;;2.45;100.00;103606.97;5093389;28;20230;-78
2023/01/23 01:46:52;;;;;;;;;;;;;;;2.45;100.00;103609.53;5089193;28;19924;-79
2023/01/23 01:49:29;;;;;;;;;;;;;;;2.46;100.00;103609.59;5078806;28;20171;-79
2023/01/23 01:51:54;;;;;;;;;;;;;;;2.46;100.00;103613.91;5099877;28;19920;-79
2023/01/23 01:54:23;;;;;;;;;;;;;;;2.47;100.00;103618.25;5080620;28;19955;-79
2023/01/23 01:56:54;;;;;;;;;;;;;;;2.47;100.00;103619.16;5087965;28;20200;-79
2023/01/23 01:59:21;;;;;;;;;;;;;;;2.48;100.00;103623.47;5080595;28;19920;-79
2023/01/23 02:01:49;;;;;;;;;;;;;;;2.47;100.00;103619.16;5080396;28;20111;-79
2023/01/23 02:04:15;;;;;;;;;;;;;;;2.47;100.00;103621.72;5079027;28;19979;-78
2023/01/23 02:06:40;;;;;;;;;;;;;;;2.45;100.00;103622.47;5093283;28;19924;-78
2023/01/23 02:09:13;;;;;;;;;;;;;;;2.43;100.00;103625.00;5093240;28;19916;-78
2023/01/23 02:11:38;;;;;;;;;;;;;;;2.39;99.90;103624.84;5081946;28;19919;-78
2023/01/23 02:14:04;;;;;;;;;;;;;;;2.36;99.93;103625.59;5086871;28;19917;-78
2023/01/23 02:16:32;;;;;;;;;;;;;;;2.35;99.96;103626.44;5093157;28;19924;-78
2023/01/23 02:19:01;;;;;;;;;;;;;;;2.33;100.00;103624.59;5089192;28;20219;-78
2023/01/23 02:21:27;;;;;;;;;;;;;;;2.32;100.00;103628.91;5091583;28;19912;-78
2023/01/23 02:24:15;;;;;;;;;;;;;;;2.31;100.00;103629.72;5082492;28;19917;-78
2023/01/23 02:26:42;;;;;;;;;;;;;;;2.32;100.00;103628.03;5094271;28;19920;-78
2023/01/23 02:29:08;;;;;;;;;;;;;;;2.34;100.00;103626.38;5086601;28;19920;-78
2023/01/23 02:31:34;;;;;;;;;;;;;;;2.34;100.00;103621.19;5083997;28;19967;-78
2023/01/23 02:33:59;;;;;;;;;;;;;;;2.35;100.00;103618.66;5084726;28;19927;-78
2023/01/23 02:36:26;;;;;;;;;;;;;;;2.38;100.00;103620.47;5098083;28;19924;-78
2023/01/23 02:38:59;;;;;;;;;;;;;;;2.41;100.00;103630.94;5093352;28;19943;-78
2023/01/23 02:41:34;;;;;;;;;;;;;;;2.42;100.00;103631.03;5090037;28;19935;-78
2023/01/23 02:44:03;;;;;;;;;;;;;;;2.43;100.00;103632.75;5079715;28;20281;-78
2023/01/23 02:46:28;;;;;;;;;;;;;;;2.43;100.00;103626.72;5097474;28;19919;-78
2023/01/23 02:48:53;;;;;;;;;;;;;;;2.43;100.00;103618.97;5084903;28;19916;-78
2023/01/23 02:51:20;;;;;;;;;;;;;;;2.43;100.00;103617.25;5084200;28;19923;-78
2023/01/23 02:53:46;;;;;;;;;;;;;;;2.43;100.00;103616.38;5083001;28;19916;-78
2023/01/23 02:56:11;;;;;;;;;;;;;;;2.43;100.00;103619.81;5092357;28;20226;-78
2023/01/23 03:01:21;;;;;;;;;;;;;;;2.43;100.00;103625.00;5095663;28;19994;-78
2023/01/23 03:03:50;;;;;;;;;;;;;;;2.44;100.00;103633.66;5097874;28;20015;-78
2023/01/23 03:06:15;;;;;;;;;;;;;;;2.45;100.00;103631.09;5078824;28;19955;-78
2023/01/23 03:08:46;;;;;;;;;;;;;;;2.47;100.00;103628.59;5098517;28;20219;-78
2023/01/23 03:11:11;;;;;;;;;;;;;;;2.48;100.00;103631.22;5095317;28;20334;-78
2023/01/23 03:13:37;;;;;;;;;;;;;;;2.44;100.00;103631.94;5090464;28;19928;-78
2023/01/23 03:16:02;;;;;;;;;;;;;;;2.45;100.00;103638.00;5090577;28;19927;-78
2023/01/23 03:18:29;;;;;;;;;;;;;;;2.44;100.00;103638.84;5095514;28;19924;-78
2023/01/23 03:20:55;;;;;;;;;;;;;;;2.46;100.00;103651.00;5086207;28;19924;-78
2023/01/23 03:23:20;;;;;;;;;;;;;;;2.46;100.00;103653.59;5081878;28;19920;-78
2023/01/23 03:25:47;;;;;;;;;;;;;;;2.45;100.00;103654.38;5090344;28;20111;-78
2023/01/23 03:30:56;;;;;;;;;;;;;;;2.47;100.00;103665.72;5080847;28;20026;-77
2023/01/23 03:33:22;;;;;;;;;;;;;;;2.46;100.00;103653.59;5090379;28;19924;-77
2023/01/23 03:35:48;;;;;;;;;;;;;;;2.45;100.00;103658.69;5079644;28;19959;-77
2023/01/23 03:38:14;;;;;;;;;;;;;;;2.45;100.00;103645.75;5083778;28;19926;-77
2023/01/23 03:43:23;;;;;;;;;;;;;;;2.43;100.00;103650.00;5083727;28;19931;-77
2023/01/23 03:45:49;;;;;;;;;;;;;;;2.40;100.00;103648.19;5083849;28;20219;-77
2023/01/23 03:48:14;;;;;;;;;;;;;;;2.40;100.00;103652.47;5092579;28;19981;-77
2023/01/23 03:50:39;;;;;;;;;;;;;;;2.38;100.00;103654.97;5063563;28;19961;-77
2023/01/23 03:53:04;;;;;;;;;;;;;;;2.41;100.00;103654.22;5076720;28;19916;-77
2023/01/23 03:55:29;;;;;;;;;;;;;;;2.41;100.00;103655.09;5093935;28;20084;-77
2023/01/23 03:57:55;;;;;;;;;;;;;;;2.42;100.00;103656.88;5076917;28;19919;-77
2023/01/23 04:00:20;;;;;;;;;;;;;;;2.45;100.00;103650.94;5077500;28;19920;-77
2023/01/23 04:02:45;;;;;;;;;;;;;;;2.46;100.00;103653.59;5080719;28;19917;-77
2023/01/23 04:05:11;;;;;;;;;;;;;;;2.46;100.00;103655.31;5083390;28;19959;-77
2023/01/23 04:07:36;;;;;;;;;;;;;;;2.47;100.00;103657.03;5100379;28;19923;-77
2023/01/23 04:10:01;;;;;;;;;;;;;;;2.45;100.00;103653.53;5088482;28;20237;-77
2023/01/23 04:12:27;;;;;;;;;;;;;;;2.45;100.00;103658.69;5078971;28;19913;-77
2023/01/23 04:14:52;;;;;;;;;;;;;;;2.47;100.00;103654.47;5089923;28;19916;-77
2023/01/23 04:17:17;;;;;;;;;;;;;;;2.48;100.00;103651.94;5099972;28;19916;-77
2023/01/23 04:19:42;;;;;;;;;;;;;;;2.49;100.00;103645.03;5099923;28;19922;-77
2023/01/23 04:22:09;;;;;;;;;;;;;;;2.47;100.00;103647.59;5093034;28;20210;-77
2023/01/23 04:24:34;;;;;;;;;;;;;;;2.48;100.00;103648.47;5083652;28;20132;-77
2023/01/23 04:26:59;;;;;;;;;;;;;;;2.49;100.00;103648.53;5092034;28;19962;-77
2023/01/23 04:29:24;;;;;;;;;;;;;;;2.51;100.00;103661.53;5080856;28;19928;-77
2023/01/23 04:31:50;;;;;;;;;;;;;;;2.50;100.00;103650.28;5092703;28;19956;-77
2023/01/23 04:34:15;;;;;;;;;;;;;;;2.50;100.00;103655.44;5082540;28;19969;-77
2023/01/23 04:36:40;;;;;;;;;;;;;;;2.49;100.00;103656.28;5079039;28;20215;-77
2023/01/23 04:39:06;;;;;;;;;;;;;;;2.49;100.00;103658.88;5096983;28;19959;-77
2023/01/23 04:41:32;;;;;;;;;;;;;;;2.46;100.00;103661.34;5082441;28;19924;-77
2023/01/23 04:44:18;;;;;;;;;;;;;;;2.46;100.00;103668.22;5079713;28;19958;-77
2023/01/23 04:46:42;;;;;;;;;;;;;;;2.44;100.00;103662.13;5081866;28;20176;-77
2023/01/23 04:49:07;;;;;;;;;;;;;;;2.45;100.00;103669.03;5086853;28;19928;-77
2023/01/23 04:51:33;;;;;;;;;;;;;;;2.44;100.00;103670.75;5092790;28;19923;-77
2023/01/23 04:53:58;;;;;;;;;;;;;;;2.45;100.00;103669.91;5082440;28;20246;-77
2023/01/23 04:56:23;;;;;;;;;;;;;;;2.45;100.00;103677.66;5090276;28;19951;-77
2023/01/23 04:58:48;;;;;;;;;;;;;;;2.44;100.00;103675.94;5080570;28;19917;-77
2023/01/23 05:01:14;;;;;;;;;;;;;;;2.44;100.00;103683.69;5070977;28;19924;-77
2023/01/23 05:03:39;;;;;;;;;;;;;;;2.44;100.00;103680.22;5099292;28;19927;-77
2023/01/23 05:06:05;;;;;;;;;;;;;;;2.46;100.00;103692.38;5074093;28;19923;-77
2023/01/23 05:08:30;;;;;;;;;;;;;;;2.47;100.00;103688.09;5099183;28;20202;-77
2023/01/23 05:10:55;;;;;;;;;;;;;;;2.48;100.00;103679.50;5082164;28;20119;-77
2023/01/23 05:13:20;;;;;;;;;;;;;;;2.46;100.00;103683.75;5078860;28;19924;-77
2023/01/23 05:15:46;;;;;;;;;;;;;;;2.45;100.00;103680.25;5092836;28;20306;-77
2023/01/23 05:18:11;;;;;;;;;;;;;;;2.46;100.00;103694.09;5092909;28;20246;-77
2023/01/23 05:20:36;;;;;;;;;;;;;;;2.47;100.00;103685.50;5082784;28;20208;-77
2023/01/23 05:23:02;;;;;;;;;;;;;;;2.45;100.00;103682.84;5095973;28;20283;-77
2023/01/23 05:25:27;;;;;;;;;;;;;;;2.46;100.00;103692.38;5078735;28;20239;-77
2023/01/23 05:27:53;;;;;;;;;;;;;;;2.48;100.00;103684.69;5078242;28;20293;-77
2023/01/23 05:30:19;;;;;;;;;;;;;;;2.46;100.00;103674.28;5093373;28;20275;-77
2023/01/23 05:32:44;;;;;;;;;;;;;;;2.46;100.00;103676.00;5085353;28;20142;-77
2023/01/23 05:35:09;;;;;;;;;;;;;;;2.45;100.00;103688.03;5079444;28;19912;-77
2023/01/23 05:37:35;;;;;;;;;;;;;;;2.45;100.00;103688.03;5088008;28;20224;-77
2023/01/23 05:40:00;;;;;;;;;;;;;;;2.43;100.00;103688.78;5079096;28;19935;-77
2023/01/23 05:42:25;;;;;;;;;;;;;;;2.41;100.00;103686.16;5085279;28;19920;-77
2023/01/23 05:44:51;;;;;;;;;;;;;;;2.42;100.00;103682.75;5061242;28;19929;-77
2023/01/23 05:47:16;;;;;;;;;;;;;;;2.45;100.00;103682.84;5082110;28;20025;-77
2023/01/23 05:49:41;;;;;;;;;;;;;;;2.48;100.00;103684.69;5087569;28;20161;-77
2023/01/23 05:52:07;;;;;;;;;;;;;;;2.49;100.00;103681.25;5090754;28;19921;-77
2023/01/23 05:54:32;;;;;;;;;;;;;;;2.50;100.00;103681.31;5078384;28;19920;-77
2023/01/23 05:56:57;;;;;;;;;;;;;;;2.54;100.00;103689.22;5089215;28;20223;-77
2023/01/23 05:59:22;;;;;;;;;;;;;;;2.56;100.00;103692.75;5082086;28;19924;-77
2023/01/23 06:01:48;;;;;;;;;;;;;;;2.57;100.00;103697.97;5078120;28;19999;-77
2023/01/23 06:04:15;;;;;;;;;;;;;;;2.57;100.00;103694.50;5092516;28;19946;-77
2023/01/23 06:06:40;;;;;;;;;;;;;;;2.58;100.00;103697.13;5079014;28;19916;-77
2023/01/23 06:09:06;;;;;;;;;;;;;;;2.59;100.00;103696.31;5082432;28;20021;-77
2023/01/23 06:11:31;;;;;;;;;;;;;;;2.59;100.00;103693.75;5091203;28;20105;-77
2023/01/23 06:13:56;;;;;;;;;;;;;;;2.59;100.00;103701.50;5092267;28;20154;-77
2023/01/23 06:16:21;;;;;;;;;;;;;;;2.57;100.00;103704.88;5083312;28;19917;-77
2023/01/23 06:18:47;;;;;;;;;;;;;;;2.55;100.00;103702.22;5078130;28;20139;-77
2023/01/23 06:21:14;;;;;;;;;;;;;;;2.56;100.00;103703.09;5088261;28;20123;-77
2023/01/23 06:23:39;;;;;;;;;;;;;;;2.53;100.00;103703.88;5089446;28;19967;-77
2023/01/23 06:26:04;;;;;;;;;;;;;;;2.53;100.00;103709.03;5087886;28;19927;-77
2023/01/23 06:28:29;;;;;;;;;;;;;;;2.53;100.00;103709.03;5082919;28;19916;-77
2023/01/23 06:30:59;;;;;;;;;;;;;;;2.53;100.00;103705.53;5095630;28;19919;-77
2023/01/23 06:33:24;;;;;;;;;;;;;;;2.54;100.00;103702.16;5083702;28;20252;-77
2023/01/23 06:35:55;;;;;;;;;;;;;;;2.52;100.00;103704.66;5086873;28;20342;-77
2023/01/23 06:38:20;;;;;;;;;;;;;;;2.52;100.00;103701.22;5077674;28;19916;-77
2023/01/23 06:40:45;;;;;;;;;;;;;;;2.53;100.00;103697.78;5057032;28;19925;-77
2023/01/23 06:43:11;;;;;;;;;;;;;;;2.54;100.00;103691.81;5068788;28;19928;-77
2023/01/23 06:45:36;;;;;;;;;;;;;;;2.56;100.00;103691.03;5080393;28;19969;-77
2023/01/23 06:48:01;;;;;;;;;;;;;;;2.56;100.00;103696.19;5096213;28;19924;-77
2023/01/23 06:50:27;;;;;;;;;;;;;;;2.57;100.00;103691.94;5080065;28;20081;-77
2023/01/23 06:52:52;;;;;;;;;;;;;;;2.57;100.00;103694.50;5078206;28;19991;-77
2023/01/23 06:55:17;;;;;;;;;;;;;;;2.56;100.00;103701.38;5085540;28;19924;-77
2023/01/23 06:57:43;;;;;;;;;;;;;;;2.55;100.00;103706.47;5089081;28;19924;-77
2023/01/23 07:00:08;;;;;;;;;;;;;;;2.52;100.00;103711.56;5086907;28;20215;-77
2023/01/23 07:02:34;;;;;;;;;;;;;;;2.50;100.00;103703.75;5079827;28;19920;-77
2023/01/23 07:04:59;;;;;;;;;;;;;;;2.50;100.00;103709.78;5097866;28;19928;-77
2023/01/23 07:07:24;;;;;;;;;;;;;;;2.51;100.00;103705.50;5092026;28;19933;-77
2023/01/23 07:09:49;;;;;;;;;;;;;;;2.54;100.00;103710.78;5079896;28;20267;-77
2023/01/23 07:12:15;;;;;;;;;;;;;;;2.57;100.00;103716.09;5085756;28;20219;-77
2023/01/23 07:14:40;;;;;;;;;;;;;;;2.58;100.00;103719.53;5091857;28;20135;-77
2023/01/23 07:17:06;;;;;;;;;;;;;;;2.60;100.00;103721.38;5079990;28;19924;-77
2023/01/23 07:19:31;;;;;;;;;;;;;;;2.60;100.00;103723.97;5088800;28;19920;-77
2023/01/23 07:21:56;;;;;;;;;;;;;;;2.61;100.00;103728.31;5084599;28;19935;-77
2023/01/23 07:24:22;;;;;;;;;;;;;;;2.62;100.00;103729.19;5096590;28;20318;-77
2023/01/23 07:26:47;;;;;;;;;;;;;;;2.63;100.00;103731.84;5079981;28;19940;-77
2023/01/23 07:29:13;;;;;;;;;;;;;;;2.66;100.00;103741.44;5094746;28;19928;-77
2023/01/23 07:31:38;;;;;;;;;;;;;;;2.68;100.00;103739.78;5079525;28;19912;-77
2023/01/23 07:34:03;;;;;;;;;;;;;;;2.69;100.00;103732.09;5079134;28;19968;-77
2023/01/23 07:36:29;;;;;;;;;;;;;;;2.69;100.00;103733.78;5092083;28;19916;-77
2023/01/23 07:38:54;;;;;;;;;;;;;;;2.68;100.00;103734.63;5076274;28;19932;-77
2023/01/23 07:41:20;;;;;;;;;;;;;;;2.67;100.00;103738.91;5086564;28;19920;-77
2023/01/23 07:43:45;;;;;;;;;;;;;;;2.64;100.00;103740.50;5083570;28;20146;-77
2023/01/23 07:46:10;;;;;;;;;;;;;;;2.64;100.00;103746.56;5076140;28;20282;-77
2023/01/23 07:48:36;;;;;;;;;;;;;;;2.63;100.00;103749.06;5076860;28;19916;-77
2023/01/23 07:51:01;;;;;;;;;;;;;;;2.60;100.00;103749.84;5082382;28;19924;-77
2023/01/23 07:53:27;;;;;;;;;;;;;;;2.59;100.00;103755.84;5092961;28;19928;-77
2023/01/23 07:55:52;;;;;;;;;;;;;;;2.59;100.00;103758.41;5066454;28;19912;-77
2023/01/23 07:58:17;;;;;;;;;;;;;;;2.61;100.00;103755.91;5090117;28;20279;-77
2023/01/23 08:00:43;;;;;;;;;;;;;;;2.62;100.00;103755.06;5089699;28;19927;-77
2023/01/23 08:03:08;;;;;;;;;;;;;;;2.63;100.00;103762.88;5076575;28;20176;-77
2023/01/23 08:05:33;;;;;;;;;;;;;;;2.65;100.00;103773.31;5077145;28;19976;-77
2023/01/23 08:07:59;;;;;;;;;;;;;;;2.61;100.00;103777.47;5078426;28;20238;-77
2023/01/23 08:10:24;;;;;;;;;;;;;;;2.63;100.00;103780.13;5055137;28;20212;-77
2023/01/23 08:12:49;;;;;;;;;;;;;;;2.64;100.00;103779.31;5066922;28;20258;-77
2023/01/23 08:15:14;;;;;;;;;;;;;;;2.60;100.00;103773.13;5073681;28;19925;-77
2023/01/23 08:17:40;;;;;;;;;;;;;;;2.61;100.00;103782.66;5072023;28;19981;-77
2023/01/23 08:20:05;;;;;;;;;;;;;;;2.61;100.00;103782.66;5072205;28;19925;-77
2023/01/23 08:22:30;;;;;;;;;;;;;;;2.60;100.00;103783.50;5064778;28;19952;-77
2023/01/23 08:24:56;;;;;;;;;;;;;;;2.59;100.00;103788.59;5073219;28;20013;-77
2023/01/23 08:27:21;;;;;;;;;;;;;;;2.59;100.00;103788.59;5072665;28;19944;-77
2023/01/23 08:29:46;;;;;;;;;;;;;;;2.55;100.00;103790.19;5072156;28;20201;-77
2023/01/23 08:32:11;;;;;;;;;;;;;;;2.55;100.00;103800.53;5073463;28;19912;-77
2023/01/23 08:34:37;;;;;;;;;;;;;;;2.56;100.00;103801.41;5070692;28;20887;-77
2023/01/23 08:37:02;;;;;;;;;;;;;;;2.57;100.00;103809.22;5072164;28;20095;-77
2023/01/23 08:39:27;;;;;;;;;;;;;;;2.58;100.00;103815.28;5052686;28;19929;-77
2023/01/23 08:41:53;;;;;;;;;;;;;;;2.58;100.00;103810.97;5073542;28;20165;-77
2023/01/23 08:44:18;;;;;;;;;;;;;;;2.57;100.00;103811.81;5076074;28;20242;-77
2023/01/23 08:46:44;;;;;;;;;;;;;;;2.58;100.00;103820.47;5074627;28;19921;-77
2023/01/23 08:49:09;;;;;;;;;;;;;;;2.55;100.00;103826.41;5080280;28;20177;-77
2023/01/23 08:51:35;;;;;;;;;;;;;;;2.56;100.00;103827.28;5076114;28;19971;-77
2023/01/23 08:54:00;;;;;;;;;;;;;;;2.55;100.00;103817.75;5076144;28;19962;-77
2023/01/23 08:56:26;;;;;;;;;;;;;;;2.57;100.00;103819.59;5076493;28;19993;-77
2023/01/23 08:58:51;;;;;;;;;;;;;;;2.55;100.00;103826.41;5077412;28;19920;-77
2023/01/23 09:01:18;;;;;;;;;;;;;;;2.56;100.00;103819.50;5076800;28;19916;-77
2023/01/23 09:03:43;;;;;;;;;;;;;;;2.56;100.00;103816.94;5077816;28;20123;-77
2023/01/23 09:06:12;;;;;;;;;;;;;;;2.56;100.00;103828.16;5079765;28;19952;-77
2023/01/23 09:08:38;;;;;;;;;;;;;;;2.57;100.00;103814.41;5078818;28;19918;-77
2023/01/23 09:11:04;;;;;;;;;;;;;;;2.61;100.00;103812.81;5079177;28;19952;-77
2023/01/23 09:13:30;;;;;;;;;;;;;;;2.62;100.00;103809.41;5078130;28;19920;-77
2023/01/23 09:15:55;;;;;;;;;;;;;;;2.63;100.00;103814.63;5079087;28;19915;-77
2023/01/23 09:18:24;;;;;;;;;;;;;;;2.64;100.00;103810.38;5074399;28;20211;-77
2023/01/23 09:20:49;;;;;;;;;;;;;;;2.65;100.00;103807.81;5064808;28;20196;-77
2023/01/23 09:23:15;;;;;;;;;;;;;;;2.68;100.00;103807.94;5077000;28;20131;-77
2023/01/23 09:25:40;;;;;;;;;;;;;;;2.68;100.00;103813.13;5078836;28;19936;-77
2023/01/23 09:28:06;;;;;;;;;;;;;;;2.69;100.00;103811.41;5079291;28;19917;-77
2023/01/23 09:30:31;;;;;;;;;;;;;;;2.71;100.00;103814.97;5078728;28;20207;-77
2023/01/23 09:32:56;;;;;;;;;;;;;;;2.72;100.00;103816.72;5085335;28;19920;-77
2023/01/23 09:35:22;;;;;;;;;;;;;;;2.74;100.00;103815.06;5084864;28;19978;-77
2023/01/23 09:38:00;;;;;;;;;;;;;;;2.76;100.00;103825.50;5077400;28;20188;-77
2023/01/23 09:40:29;;;;;;;;;;;;;;;2.77;100.00;103830.72;5076483;28;20113;-77
2023/01/23 09:42:57;;;;;;;;;;;;;;;2.78;100.00;103831.59;5077729;28;19908;-77
2023/01/23 09:45:24;;;;;;;;;;;;;;;2.79;100.00;103834.25;5076871;28;20226;-77
2023/01/23 09:47:53;;;;;;;;;;;;;;;2.78;100.00;103832.47;5077472;28;19916;-77
2023/01/23 09:50:27;;;;;;;;;;;;;;;2.78;100.00;103840.25;5061582;28;19987;-77
2023/01/23 09:52:56;;;;;;;;;;;;;;;2.78;100.00;103847.13;5078774;28;20284;-77
2023/01/23 09:55:42;;;;;;;;;;;;;;;2.77;100.00;103840.22;5077839;28;19920;-77
2023/01/23 09:58:21;;;;;;;;;;;;;;;2.78;100.00;103842.84;5077248;28;19939;-77
2023/01/23 10:00:47;;;;;;;;;;;;;;;2.79;100.00;103847.19;5078279;28;20026;-77
2023/01/23 10:03:14;;;;;;;;;;;;;;;2.81;100.00;103848.13;5077551;28;19919;-77
2023/01/23 10:05:45;;;;;;;;;;;;;;;2.83;100.00;103845.63;5078374;28;19974;-77
2023/01/23 10:08:17;;;;;;;;;;;;;;;2.86;100.00;103841.44;5077081;28;20104;-77
2023/01/23 10:11:05;;;;;;;;;;;;;;;2.88;100.00;103847.56;5085060;28;20000;-77
2023/01/23 10:13:39;;;;;;;;;;;;;;;2.88;100.00;103852.75;5035426;28;20007;-77
2023/01/23 10:16:04;;;;;;;;;;;;;;;2.87;100.00;103838.03;5076225;28;19923;-77
2023/01/23 10:18:39;;;;;;;;;;;;;;;2.87;100.00;103834.56;5077194;28;19991;-77
2023/01/23 10:21:08;;;;;;;;;;;;;;;2.87;100.00;103830.28;5077971;28;19928;-77
2023/01/23 10:23:36;;;;;;;;;;;;;;;2.88;100.00;103836.34;5076300;28;20116;-77
2023/01/23 10:26:02;;;;;;;;;;;;;;;2.88;100.00;103833.75;5076708;28;20093;-77
2023/01/23 10:28:38;;;;;;;;;;;;;;;2.89;100.00;103827.72;5076614;28;20112;-77
2023/01/23 10:31:09;;;;;;;;;;;;;;;2.89;100.00;103825.13;5074522;28;19983;-77
2023/01/23 10:33:49;;;;;;;;;;;;;;;2.90;100.00;103828.63;5076996;28;19965;-77
2023/01/23 10:36:33;;;;;;;;;;;;;;;2.92;100.00;103832.16;5077333;28;20259;-77
2023/01/23 10:39:01;;;;;;;;;;;;;;;2.93;100.00;103818.38;5077588;28;19912;-77
2023/01/23 10:41:27;;;;;;;;;;;;;;;2.93;100.00;103818.38;5077196;28;19916;-77
2023/01/23 10:43:53;;;;;;;;;;;;;;;2.92;100.00;103814.91;5077509;28;19955;-77
2023/01/23 10:46:21;;;;;;;;;;;;;;;2.93;100.00;103821.88;5077091;28;19917;-77
2023/01/23 10:48:50;;;;;;;;;;;;;;;2.92;100.00;103811.44;5077296;28;19915;-77
2023/01/23 10:51:22;;;;;;;;;;;;;;;2.94;100.00;103822.75;5075107;28;19935;-77
2023/01/23 10:53:59;;;;;;;;;;;;;;;2.94;100.00;103817.56;5075786;28;19916;-77
2023/01/23 10:56:25;;;;;;;;;;;;;;;2.95;100.00;103819.31;5061302;28;20219;-77
2023/01/23 10:58:54;;;;;;;;;;;;;;;2.94;100.00;103827.91;5077366;28;19920;-77
2023/01/23 11:01:30;;;;;;;;;;;;;;;2.94;100.00;103835.69;5076010;28;19908;-77
2023/01/23 11:03:55;;;;;;;;;;;;;;;2.94;100.00;103830.50;5075965;28;19921;-77
2023/01/23 11:06:24;;;;;;;;;;;;;;;2.94;100.00;103841.75;5077060;28;19961;-77
2023/01/23 11:08:56;;;;;;;;;;;;;;;2.94;100.00;103835.69;5077879;28;20159;-77
2023/01/23 11:11:23;;;;;;;;;;;;;;;2.94;100.00;103831.38;5077844;28;20195;-77
2023/01/23 11:13:49;;;;;;;;;;;;;;;2.95;100.00;103824.50;5093466;28;19916;-77
2023/01/23 11:16:16;;;;;;;;;;;;;;;2.94;100.00;103823.63;5077797;28;19909;-77
2023/01/23 11:18:46;;;;;;;;;;;;;;;2.94;100.00;103831.38;5077174;28;19916;-77
2023/01/23 11:21:21;;;;;;;;;;;;;;;2.95;100.00;103835.75;5076960;28;19916;-77
2023/01/23 11:23:47;;;;;;;;;;;;;;;2.95;100.00;103835.75;5076627;28;19924;-77
2023/01/23 11:26:41;;;;;;;;;;;;;;;2.96;100.00;103834.03;5077181;28;20154;-77
2023/01/23 11:29:23;;;;;;;;;;;;;;;2.97;100.00;103828.06;5067983;28;20203;-77
2023/01/23 11:31:51;;;;;;;;;;;;;;;2.97;100.00;103821.16;5077112;28;19916;-77
2023/01/23 11:34:19;;;;;;;;;;;;;;;2.99;100.00;103816.03;5076115;28;20089;-77
2023/01/23 11:36:52;;;;;;;;;;;;;;;2.99;100.00;103821.22;5076982;28;20259;-77
2023/01/23 11:39:24;;;;;;;;;;;;;;;3.00;100.00;103813.50;5076346;28;19987;-77
2023/01/23 11:41:50;;;;;;;;;;;;;;;3.01;100.00;103812.69;5077021;28;19939;-77
2023/01/23 11:44:17;;;;;;;;;;;;;;;3.05;100.00;103813.69;5071917;28;20223;-77
2023/01/23 11:46:50;;;;;;;;;;;;;;;3.03;100.00;103817.91;5072103;28;19920;-77
2023/01/23 11:49:24;;;;;;;;;;;;;;;3.03;100.00;103826.56;5073926;28;20215;-77
2023/01/23 11:52:09;;;;;;;;;;;;;;;3.03;100.00;103820.50;5073796;28;20186;-77
2023/01/23 11:54:49;;;;;;;;;;;;;;;3.04;100.00;103820.56;5074305;28;20015;-77
2023/01/23 11:57:17;;;;;;;;;;;;;;;3.03;100.00;103823.09;5072569;28;19916;-77
2023/01/23 11:59:43;;;;;;;;;;;;;;;3.03;100.00;103823.97;5075709;28;19924;-77
2023/01/23 12:02:25;;;;;;;;;;;;;;;3.04;100.00;103822.28;5075666;28;20153;-77
2023/01/23 12:04:59;;;;;;;;;;;;;;;3.05;100.00;103827.50;5070007;28;20120;-77
2023/01/23 12:07:25;;;;;;;;;;;;;;;3.08;100.00;103826.75;5076631;28;19924;-77
2023/01/23 12:09:53;;;;;;;;;;;;;;;3.09;100.00;103831.09;5069737;28;19967;-77
2023/01/23 12:12:25;;;;;;;;;;;;;;;3.08;100.00;103831.94;5077342;28;19916;-77
2023/01/23 12:14:56;;;;;;;;;;;;;;;3.10;100.00;103821.63;5076772;28;19917;-77
2023/01/23 12:17:40;;;;;;;;;;;;;;;3.10;100.00;103824.22;5070391;28;19920;-77
2023/01/23 12:20:25;;;;;;;;;;;;;;;3.11;100.00;103811.34;5075326;28;19919;-77
2023/01/23 12:22:59;;;;;;;;;;;;;;;3.12;100.00;103818.25;5035641;28;20120;-77
2023/01/23 12:25:37;;;;;;;;;;;;;;;3.12;100.00;103812.22;5079436;28;19931;-77
2023/01/23 12:28:15;;;;;;;;;;;;;;;3.13;100.00;103822.63;5078808;28;19979;-77
2023/01/23 12:30:46;;;;;;;;;;;;;;;3.14;100.00;103819.19;5078735;28;19923;-77
2023/01/23 12:33:22;;;;;;;;;;;;;;;3.17;100.00;103826.22;5079503;28;19999;-77
2023/01/23 12:36:06;;;;;;;;;;;;;;;3.17;100.00;103831.41;5078656;28;19961;-77
2023/01/23 12:38:33;;;;;;;;;;;;;;;3.19;100.00;103824.56;5079215;28;19993;-77
2023/01/23 12:41:19;;;;;;;;;;;;;;;3.20;100.00;103839.28;5079936;28;20007;-77
2023/01/23 12:43:48;;;;;;;;;;;;;;;3.21;100.00;103844.50;5079800;28;19913;-77
2023/01/23 12:46:17;;;;;;;;;;;;;;;3.21;99.60;103843.63;5079964;28;19949;-77